Time;durP1;ratioP1;P1;durP2;ratioP2;P2;SDS_P1;SDS_P2;PMS_P1;PMS_P2;Temp;Humidity;BMP_temperature;BMP_pressure;BME280_temperature;BME280_humidity;BME280_pressure;Samples;Min_cycle;Max_cycle;Signal;HPM_P1;HPM_P2
2022/11/30 00:00:21;;;;;;;56.65;26.65;;;9.00;99.90;;;;;;4178267;28;20047;-66
2022/11/30 00:02:23;;;;;;;55.13;25.42;;;9.00;99.90;;;;;;4178528;28;20037;-66
2022/11/30 00:04:23;;;;;;;68.97;30.67;;;9.00;99.90;;;;;;4178339;28;20427;-65
2022/11/30 00:06:24;;;;;;;62.78;27.88;;;9.00;99.90;;;;;;4170422;28;20048;-67
2022/11/30 00:08:28;;;;;;;59.72;27.73;;;9.00;99.90;;;;;;4170007;28;20114;-66
2022/11/30 00:10:28;;;;;;;58.28;29.23;;;9.00;99.90;;;;;;4166943;28;20048;-66
2022/11/30 00:12:29;;;;;;;58.13;27.63;;;9.00;99.90;;;;;;4172001;28;20025;-66
2022/11/30 00:14:29;;;;;;;56.75;27.60;;;9.00;99.90;;;;;;4165371;28;20156;-65
2022/11/30 00:16:30;;;;;;;58.72;28.48;;;9.00;99.90;;;;;;4167743;28;20491;-66
2022/11/30 00:18:30;;;;;;;56.65;26.88;;;9.00;99.90;;;;;;4172029;28;20099;-66
2022/11/30 00:20:31;;;;;;;58.20;28.67;;;9.10;99.90;;;;;;4171293;28;20104;-65
2022/11/30 00:22:32;;;;;;;62.10;29.05;;;9.10;99.90;;;;;;4168024;28;20037;-65
2022/11/30 00:24:32;;;;;;;60.60;29.77;;;9.10;99.90;;;;;;4172527;28;20365;-66
2022/11/30 00:26:33;;;;;;;53.85;25.17;;;9.00;99.90;;;;;;4169800;28;20034;-65
2022/11/30 00:28:34;;;;;;;50.15;25.02;;;9.10;99.90;;;;;;4167563;28;20040;-66
2022/11/30 00:30:35;;;;;;;49.17;24.50;;;9.10;99.90;;;;;;4170507;28;20087;-66
2022/11/30 00:32:35;;;;;;;55.90;27.17;;;9.20;99.90;;;;;;4160609;28;20042;-66
2022/11/30 00:34:36;;;;;;;60.80;28.98;;;9.10;99.90;;;;;;4176415;28;20040;-66
2022/11/30 00:36:36;;;;;;;59.42;28.48;;;9.20;99.90;;;;;;4169643;28;20033;-66
2022/11/30 00:38:37;;;;;;;50.95;25.33;;;9.20;99.90;;;;;;4173448;28;20071;-66
2022/11/30 00:40:38;;;;;;;56.45;26.52;;;9.20;99.90;;;;;;4172576;28;20021;-66
2022/11/30 00:42:39;;;;;;;64.75;30.30;;;9.20;99.90;;;;;;4160471;28;20452;-66
2022/11/30 00:44:39;;;;;;;58.10;27.42;;;9.20;99.90;;;;;;4169429;28;20108;-67
2022/11/30 00:46:40;;;;;;;59.92;27.25;;;9.20;99.90;;;;;;4172418;28;20036;-66
2022/11/30 00:48:40;;;;;;;67.20;32.67;;;9.20;99.90;;;;;;4168662;28;20030;-66
2022/11/30 00:50:41;;;;;;;65.97;29.40;;;9.20;99.90;;;;;;4174988;28;20032;-66
2022/11/30 00:52:42;;;;;;;56.42;27.67;;;9.20;99.90;;;;;;4172826;28;20063;-66
2022/11/30 00:54:42;;;;;;;70.05;30.55;;;9.20;99.90;;;;;;4169672;28;20029;-66
2022/11/30 00:56:43;;;;;;;62.55;28.15;;;9.20;99.90;;;;;;4172974;28;20026;-66
2022/11/30 00:58:43;;;;;;;66.63;30.45;;;9.30;99.90;;;;;;4168666;28;20026;-66
2022/11/30 01:00:45;;;;;;;61.28;28.85;;;9.20;99.90;;;;;;4160992;28;20036;-66
2022/11/30 01:02:45;;;;;;;61.60;28.80;;;9.20;99.90;;;;;;4165758;28;20034;-66
2022/11/30 01:04:46;;;;;;;61.38;28.83;;;9.20;99.90;;;;;;4167851;28;20032;-66
2022/11/30 01:06:46;;;;;;;54.60;26.13;;;9.20;99.90;;;;;;4167921;28;20491;-66
2022/11/30 01:08:47;;;;;;;52.45;27.13;;;9.20;99.90;;;;;;4166320;28;20114;-66
2022/11/30 01:10:52;;;;;;;55.28;25.80;;;9.20;99.90;;;;;;4169450;28;20040;-66
2022/11/30 01:12:53;;;;;;;55.88;26.92;;;9.20;99.90;;;;;;4156682;28;20113;-66
2022/11/30 01:14:53;;;;;;;49.55;25.80;;;9.20;99.90;;;;;;4163271;28;20021;-66
2022/11/30 01:16:54;;;;;;;49.65;25.60;;;9.20;99.90;;;;;;4171643;28;20028;-66
2022/11/30 01:18:55;;;;;;;46.72;23.55;;;9.20;99.90;;;;;;4169908;28;20021;-66
2022/11/30 01:20:55;;;;;;;54.50;28.40;;;9.20;99.90;;;;;;4166031;28;20033;-67
2022/11/30 01:22:56;;;;;;;51.25;25.73;;;9.20;99.90;;;;;;4173850;28;20029;-66
2022/11/30 01:24:56;;;;;;;48.47;25.67;;;9.20;99.90;;;;;;4168718;28;20029;-66
2022/11/30 01:26:57;;;;;;;42.63;24.35;;;9.20;99.90;;;;;;4164997;28;20033;-66
2022/11/30 01:28:58;;;;;;;38.15;21.30;;;9.20;99.90;;;;;;4162731;28;20061;-66
2022/11/30 01:31:09;;;;;;;34.90;19.88;;;9.10;99.90;;;;;;4162348;28;20071;-66
2022/11/30 01:33:10;;;;;;;32.38;19.80;;;9.10;99.90;;;;;;4172055;28;20182;-66
2022/11/30 01:35:10;;;;;;;30.70;18.52;;;9.10;99.90;;;;;;4167464;28;20033;-67
2022/11/30 01:37:11;;;;;;;34.72;19.65;;;9.10;99.90;;;;;;4175269;28;20024;-66
2022/11/30 01:39:11;;;;;;;30.60;18.77;;;9.10;99.90;;;;;;4170549;28;20429;-66
2022/11/30 01:41:17;;;;;;;37.83;22.27;;;9.10;99.90;;;;;;4173821;28;20025;-66
2022/11/30 01:43:19;;;;;;;31.35;19.13;;;9.10;99.90;;;;;;4163315;28;20484;-65
2022/11/30 01:45:19;;;;;;;28.48;18.83;;;9.00;99.90;;;;;;4169682;28;20037;-66
2022/11/30 01:47:26;;;;;;;27.80;18.40;;;9.10;99.90;;;;;;4170329;28;20426;-65
2022/11/30 01:49:35;;;;;;;26.50;17.20;;;9.10;99.90;;;;;;4171836;28;20036;-66
2022/11/30 01:51:49;;;;;;;26.50;16.98;;;9.10;99.90;;;;;;4168689;28;20034;-65
2022/11/30 01:53:50;;;;;;;29.45;17.50;;;9.00;99.90;;;;;;4171574;28;20025;-66
2022/11/30 01:55:51;;;;;;;29.08;18.48;;;9.10;99.90;;;;;;4169519;28;20037;-65
2022/11/30 01:58:04;;;;;;;27.73;18.10;;;9.10;99.90;;;;;;4166017;28;20029;-66
2022/11/30 02:00:09;;;;;;;29.25;18.00;;;9.10;99.90;;;;;;4170721;28;20390;-66
2022/11/30 02:02:10;;;;;;;30.10;18.90;;;9.10;99.90;;;;;;4172450;28;20044;-66
2022/11/30 02:04:18;;;;;;;32.83;19.92;;;9.10;99.90;;;;;;4175040;28;20108;-66
2022/11/30 02:06:18;;;;;;;30.83;20.52;;;9.00;99.90;;;;;;4167425;28;20036;-65
2022/11/30 02:08:20;;;;;;;29.38;18.98;;;9.00;99.90;;;;;;4171835;28;20049;-65
2022/11/30 02:10:42;;;;;;;46.25;23.52;;;9.00;99.90;;;;;;4171315;28;20082;-65
2022/11/30 02:13:07;;;;;;;33.28;21.35;;;9.00;99.90;;;;;;4173307;28;20028;-66
2022/11/30 02:15:11;;;;;;;34.20;22.98;;;9.00;99.90;;;;;;4165742;28;20025;-65
2022/11/30 02:17:24;;;;;;;29.02;19.15;;;9.00;99.90;;;;;;4170989;28;20116;-65
2022/11/30 02:19:28;;;;;;;30.58;18.58;;;8.90;99.90;;;;;;4164875;28;20124;-65
2022/11/30 02:21:58;;;;;;;33.25;21.13;;;9.00;99.90;;;;;;4173621;28;20079;-65
2022/11/30 02:24:13;;;;;;;31.60;19.80;;;8.90;99.90;;;;;;4170241;28;20025;-66
2022/11/30 02:26:40;;;;;;;35.17;21.95;;;9.00;99.90;;;;;;4165494;28;20033;-65
2022/11/30 02:28:49;;;;;;;35.65;21.95;;;8.90;99.90;;;;;;4169994;28;20080;-66
2022/11/30 02:30:52;;;;;;;34.20;22.67;;;8.90;99.90;;;;;;4162118;28;20038;-65
2022/11/30 02:32:57;;;;;;;39.55;23.88;;;8.90;99.90;;;;;;4167766;28;20025;-64
2022/11/30 02:35:00;;;;;;;31.67;20.58;;;8.90;99.90;;;;;;4158875;28;20029;-66
2022/11/30 02:37:03;;;;;;;32.00;20.90;;;8.90;99.90;;;;;;4169535;28;20029;-65
2022/11/30 02:39:05;;;;;;;31.08;20.00;;;8.90;99.90;;;;;;4171508;28;20090;-65
2022/11/30 02:41:06;;;;;;;31.00;20.85;;;8.90;99.90;;;;;;4158534;28;20120;-65
2022/11/30 02:43:07;;;;;;;29.25;19.92;;;8.90;99.90;;;;;;4174074;28;20025;-65
2022/11/30 02:45:08;;;;;;;30.17;19.63;;;8.90;99.90;;;;;;4169849;28;20365;-67
2022/11/30 02:47:32;;;;;;;31.15;19.98;;;8.90;99.90;;;;;;4167925;28;20424;-65
2022/11/30 02:49:44;;;;;;;26.23;17.80;;;8.90;99.90;;;;;;4172999;28;20112;-65
2022/11/30 02:51:46;;;;;;;29.70;19.42;;;8.90;99.90;;;;;;4170034;28;20395;-65
2022/11/30 02:53:47;;;;;;;32.50;20.25;;;8.90;99.90;;;;;;4174528;28;20052;-65
2022/11/30 02:55:48;;;;;;;29.77;19.90;;;8.90;99.90;;;;;;4166787;28;20374;-65
2022/11/30 02:57:48;;;;;;;29.00;19.25;;;8.90;99.90;;;;;;4168079;28;20079;-65
2022/11/30 02:59:49;;;;;;;35.45;22.77;;;8.90;99.90;;;;;;4168470;28;20033;-65
2022/11/30 03:01:50;;;;;;;30.27;21.00;;;8.90;99.90;;;;;;4173404;28;20025;-65
2022/11/30 03:03:50;;;;;;;28.52;18.50;;;8.90;99.90;;;;;;4170103;28;20037;-65
2022/11/30 03:05:51;;;;;;;30.55;19.80;;;8.90;99.90;;;;;;4168928;28;20079;-66
2022/11/30 03:07:51;;;;;;;28.10;18.50;;;8.90;99.90;;;;;;4158979;28;20049;-65
2022/11/30 03:09:52;;;;;;;29.73;19.90;;;9.00;99.90;;;;;;4176297;28;20040;-65
2022/11/30 03:11:52;;;;;;;28.55;19.10;;;8.90;99.90;;;;;;4175319;28;20041;-65
2022/11/30 03:13:53;;;;;;;27.10;18.35;;;8.90;99.90;;;;;;4159122;28;20507;-66
2022/11/30 03:15:53;;;;;;;30.23;18.25;;;8.90;99.90;;;;;;4175576;28;20041;-65
2022/11/30 03:17:54;;;;;;;26.83;18.00;;;8.90;99.90;;;;;;4175404;28;20498;-66
2022/11/30 03:19:55;;;;;;;27.70;17.05;;;9.00;99.90;;;;;;4164226;28;21419;-65
2022/11/30 03:21:55;;;;;;;27.55;18.23;;;9.00;99.90;;;;;;4171812;28;20055;-66
2022/11/30 03:23:56;;;;;;;28.08;18.63;;;9.00;99.90;;;;;;4176332;28;20025;-65
2022/11/30 03:25:57;;;;;;;26.88;16.98;;;9.00;99.90;;;;;;4175566;28;20594;-65
2022/11/30 03:28:00;;;;;;;26.40;18.38;;;9.10;99.90;;;;;;4158641;28;20113;-66
2022/11/30 03:30:00;;;;;;;27.90;18.35;;;9.00;99.90;;;;;;4176611;28;20049;-66
2022/11/30 03:32:01;;;;;;;27.98;16.35;;;9.00;99.90;;;;;;4174664;28;20502;-66
2022/11/30 03:34:01;;;;;;;26.17;17.30;;;9.10;99.90;;;;;;4176319;28;20072;-66
2022/11/30 03:36:05;;;;;;;26.60;17.38;;;9.10;99.90;;;;;;4175434;28;20044;-66
2022/11/30 03:38:06;;;;;;;26.33;17.75;;;9.00;99.90;;;;;;4176312;28;20033;-66
2022/11/30 03:40:07;;;;;;;26.00;17.48;;;9.10;99.90;;;;;;4173141;28;20167;-66
2022/11/30 03:42:08;;;;;;;27.00;18.10;;;9.10;99.90;;;;;;4166088;28;20511;-66
2022/11/30 03:44:09;;;;;;;27.30;17.63;;;9.10;99.90;;;;;;4173224;28;20033;-65
2022/11/30 03:46:09;;;;;;;26.27;16.77;;;9.10;99.90;;;;;;4170654;28;20428;-65
2022/11/30 03:48:10;;;;;;;25.30;17.30;;;9.10;99.90;;;;;;4165967;28;20033;-65
2022/11/30 03:50:11;;;;;;;28.05;18.58;;;9.10;99.90;;;;;;4166883;28;20373;-67
2022/11/30 03:52:13;;;;;;;28.40;18.60;;;9.10;99.90;;;;;;4170293;28;20060;-67
2022/11/30 03:54:13;;;;;;;28.50;18.73;;;9.10;99.90;;;;;;4166261;28;20491;-67
2022/11/30 03:56:15;;;;;;;26.80;18.15;;;9.00;99.90;;;;;;4177609;28;20029;-66
2022/11/30 03:58:16;;;;;;;28.15;18.35;;;9.00;99.90;;;;;;4176864;28;20089;-66
2022/11/30 04:00:17;;;;;;;27.77;18.42;;;9.00;99.90;;;;;;4162143;28;20033;-66
2022/11/30 04:02:17;;;;;;;27.80;18.55;;;9.00;99.90;;;;;;4173539;28;20049;-66
2022/11/30 04:04:18;;;;;;;26.40;16.95;;;9.00;99.90;;;;;;4172026;28;20404;-66
2022/11/30 04:06:20;;;;;;;27.85;18.20;;;9.00;99.90;;;;;;4175180;28;20032;-66
2022/11/30 04:08:21;;;;;;;25.27;17.52;;;9.00;99.90;;;;;;4163434;28;20045;-66
2022/11/30 04:10:22;;;;;;;27.35;17.90;;;9.00;99.90;;;;;;4163841;28;20036;-66
2022/11/30 04:12:23;;;;;;;27.50;17.58;;;9.00;99.90;;;;;;4164824;28;20455;-66
2022/11/30 04:14:23;;;;;;;27.15;18.02;;;8.90;99.90;;;;;;4162161;28;20080;-66
2022/11/30 04:16:24;;;;;;;30.35;19.85;;;8.90;99.90;;;;;;4162917;28;20040;-66
2022/11/30 04:18:26;;;;;;;27.90;18.73;;;8.90;99.90;;;;;;4168444;28;20400;-66
2022/11/30 04:20:27;;;;;;;26.42;17.70;;;8.90;99.90;;;;;;4151070;28;20042;-65
2022/11/30 04:22:28;;;;;;;28.15;17.38;;;8.90;99.90;;;;;;4168492;28;20049;-65
2022/11/30 04:24:28;;;;;;;26.58;17.10;;;8.80;99.90;;;;;;4148358;28;20044;-67
2022/11/30 04:26:29;;;;;;;28.85;18.67;;;8.80;99.90;;;;;;4166516;28;20091;-66
2022/11/30 04:28:29;;;;;;;28.98;19.00;;;8.80;99.90;;;;;;4168175;28;20033;-66
2022/11/30 04:30:32;;;;;;;27.42;18.70;;;8.80;99.90;;;;;;4168441;28;21269;-66
2022/11/30 04:32:32;;;;;;;26.23;17.95;;;8.80;99.90;;;;;;4162600;28;20036;-66
2022/11/30 04:34:33;;;;;;;26.40;17.63;;;8.80;99.90;;;;;;4164826;28;20029;-66
2022/11/30 04:36:33;;;;;;;25.92;17.85;;;8.80;99.90;;;;;;4168998;28;20029;-66
2022/11/30 04:38:35;;;;;;;25.83;17.60;;;8.80;99.90;;;;;;4163937;28;20044;-66
2022/11/30 04:40:39;;;;;;;24.87;17.53;;;8.80;99.90;;;;;;4160445;28;20022;-66
2022/11/30 04:42:40;;;;;;;24.50;16.85;;;8.70;99.90;;;;;;4177967;28;20040;-66
2022/11/30 04:44:40;;;;;;;27.33;16.65;;;8.70;99.90;;;;;;4173806;28;20065;-66
2022/11/30 04:46:41;;;;;;;26.80;16.98;;;8.70;99.90;;;;;;4177848;28;20078;-66
2022/11/30 04:48:42;;;;;;;30.45;17.35;;;8.70;99.90;;;;;;4177938;28;20025;-66
2022/11/30 04:50:43;;;;;;;28.35;18.17;;;8.70;99.90;;;;;;4177542;28;20017;-66
2022/11/30 04:52:43;;;;;;;27.67;18.05;;;8.70;99.90;;;;;;4176101;28;20044;-66
2022/11/30 04:54:44;;;;;;;27.58;17.50;;;8.70;99.90;;;;;;4175941;28;20035;-66
2022/11/30 04:56:45;;;;;;;27.65;18.48;;;8.60;99.90;;;;;;4177504;28;20040;-66
2022/11/30 04:58:45;;;;;;;24.88;16.40;;;8.60;99.90;;;;;;4177863;28;20029;-65
2022/11/30 05:00:46;;;;;;;24.33;16.20;;;8.60;99.90;;;;;;4177352;28;20057;-66
2022/11/30 05:02:46;;;;;;;24.60;16.83;;;8.60;99.90;;;;;;4173155;28;20034;-66
2022/11/30 05:04:47;;;;;;;28.60;18.17;;;8.60;99.90;;;;;;4163421;28;20022;-66
2022/11/30 05:06:47;;;;;;;28.23;18.15;;;8.60;99.90;;;;;;4163668;28;20044;-66
2022/11/30 05:08:48;;;;;;;26.38;17.55;;;8.60;99.90;;;;;;4170685;28;20994;-66
2022/11/30 05:10:53;;;;;;;24.17;16.55;;;8.60;99.90;;;;;;4170678;28;20114;-65
2022/11/30 05:12:53;;;;;;;26.23;17.05;;;8.60;99.90;;;;;;4178827;28;20036;-66
2022/11/30 05:14:54;;;;;;;24.92;15.70;;;8.50;99.90;;;;;;4173038;28;20029;-65
2022/11/30 05:16:55;;;;;;;26.60;17.15;;;8.60;99.90;;;;;;4171005;28;20029;-66
2022/11/30 05:18:55;;;;;;;25.55;16.90;;;8.50;99.90;;;;;;4177477;28;20059;-65
2022/11/30 05:20:56;;;;;;;25.77;16.40;;;8.60;99.90;;;;;;4170552;28;20029;-65
2022/11/30 05:22:56;;;;;;;23.15;16.25;;;8.50;99.90;;;;;;4175028;28;20029;-65
2022/11/30 05:24:57;;;;;;;25.98;16.48;;;8.50;99.90;;;;;;4174412;28;20032;-65
2022/11/30 05:26:58;;;;;;;25.35;16.23;;;8.50;99.90;;;;;;4172332;28;20029;-66
2022/11/30 05:28:58;;;;;;;23.80;16.02;;;8.40;99.90;;;;;;4175957;28;20057;-65
2022/11/30 05:31:05;;;;;;;28.00;18.55;;;8.40;99.90;;;;;;4170996;28;20462;-67
2022/11/30 05:33:06;;;;;;;24.05;16.50;;;8.40;99.90;;;;;;4171010;28;20036;-65
2022/11/30 05:35:07;;;;;;;26.35;17.15;;;8.40;99.90;;;;;;4171287;28;20483;-66
2022/11/30 05:37:08;;;;;;;27.35;16.75;;;8.30;99.90;;;;;;4167521;28;20026;-66
2022/11/30 05:39:08;;;;;;;26.33;16.33;;;8.40;99.90;;;;;;4174579;28;20059;-66
2022/11/30 05:41:09;;;;;;;23.73;15.55;;;8.30;99.90;;;;;;4167057;28;20052;-65
2022/11/30 05:43:09;;;;;;;23.75;15.95;;;8.30;99.90;;;;;;4182621;28;20058;-65
2022/11/30 05:45:10;;;;;;;24.67;16.05;;;8.30;99.90;;;;;;4174881;28;20040;-67
2022/11/30 05:47:11;;;;;;;21.75;14.75;;;8.30;99.90;;;;;;4179441;28;20160;-65
2022/11/30 05:49:11;;;;;;;23.42;14.55;;;8.30;99.90;;;;;;4168771;28;20033;-66
2022/11/30 05:51:15;;;;;;;22.13;15.35;;;8.30;99.90;;;;;;4174750;28;20503;-65
2022/11/30 05:53:16;;;;;;;21.98;14.73;;;8.30;99.90;;;;;;4170617;28;20032;-65
2022/11/30 05:55:16;;;;;;;21.55;14.90;;;8.30;99.90;;;;;;4172643;28;20553;-66
2022/11/30 05:57:17;;;;;;;22.85;15.43;;;8.30;99.90;;;;;;4180818;28;20033;-66
2022/11/30 05:59:17;;;;;;;23.73;15.52;;;8.30;99.90;;;;;;4175421;28;20044;-65
2022/11/30 06:01:25;;;;;;;23.20;14.65;;;8.30;99.90;;;;;;4172520;28;20547;-65
2022/11/30 06:03:28;;;;;;;20.73;14.02;;;8.30;99.90;;;;;;4166760;28;20361;-65
2022/11/30 06:05:29;;;;;;;21.48;13.38;;;8.20;99.90;;;;;;4174920;28;20448;-65
2022/11/30 06:07:29;;;;;;;22.27;14.23;;;8.20;99.90;;;;;;4170349;28;20063;-65
2022/11/30 06:09:30;;;;;;;22.40;14.38;;;8.20;99.90;;;;;;4175504;28;20151;-66
2022/11/30 06:11:30;;;;;;;22.13;13.80;;;8.20;99.90;;;;;;4175504;28;20143;-66
2022/11/30 06:13:34;;;;;;;18.63;12.77;;;8.10;99.90;;;;;;4174195;28;20037;-65
2022/11/30 06:15:38;;;;;;;17.98;12.50;;;8.10;99.90;;;;;;4172562;28;20040;-66
2022/11/30 06:17:38;;;;;;;17.00;11.18;;;8.20;99.90;;;;;;4173712;28;20045;-66
2022/11/30 06:19:39;;;;;;;17.23;11.70;;;8.10;99.90;;;;;;4173329;28;20048;-66
2022/11/30 06:21:39;;;;;;;16.88;11.52;;;8.10;99.90;;;;;;4169675;28;20108;-65
2022/11/30 06:23:40;;;;;;;16.80;11.68;;;8.00;99.90;;;;;;4168310;28;20037;-66
2022/11/30 06:25:40;;;;;;;19.27;12.93;;;8.00;99.90;;;;;;4172320;28;20053;-66
2022/11/30 06:27:42;;;;;;;18.77;11.98;;;8.00;99.90;;;;;;4173836;28;20033;-65
2022/11/30 06:29:43;;;;;;;18.58;12.32;;;7.90;99.90;;;;;;4171247;28;20068;-65
2022/11/30 06:31:43;;;;;;;17.77;11.30;;;7.90;99.90;;;;;;4169046;28;20095;-66
2022/11/30 06:33:44;;;;;;;15.10;10.60;;;7.90;99.90;;;;;;4176592;28;20043;-65
2022/11/30 06:35:47;;;;;;;16.77;11.45;;;7.80;99.90;;;;;;4171288;28;20033;-65
2022/11/30 06:37:48;;;;;;;17.70;11.93;;;7.80;99.90;;;;;;4166979;28;20041;-65
2022/11/30 06:39:48;;;;;;;16.67;11.00;;;7.70;99.90;;;;;;4175754;28;20405;-65
2022/11/30 06:41:49;;;;;;;17.65;11.57;;;7.70;99.90;;;;;;4173565;28;20118;-65
2022/11/30 06:43:49;;;;;;;14.52;10.15;;;7.70;99.90;;;;;;4175432;28;20041;-65
2022/11/30 06:45:50;;;;;;;15.55;10.55;;;7.70;99.90;;;;;;4171443;28;20041;-65
2022/11/30 06:47:54;;;;;;;14.95;9.40;;;7.70;99.90;;;;;;4174405;28;20067;-65
2022/11/30 06:49:55;;;;;;;15.68;10.13;;;7.70;99.90;;;;;;4176396;28;20398;-65
2022/11/30 06:51:56;;;;;;;16.73;10.70;;;7.60;99.90;;;;;;4169527;28;20033;-65
2022/11/30 06:53:56;;;;;;;15.48;10.20;;;7.60;99.90;;;;;;4173937;28;20500;-65
2022/11/30 06:55:57;;;;;;;16.88;10.77;;;7.60;99.90;;;;;;4174290;28;20029;-65
2022/11/30 06:58:08;;;;;;;15.35;10.77;;;7.60;99.90;;;;;;4166282;28;20034;-65
2022/11/30 07:00:11;;;;;;;17.48;11.55;;;7.60;99.90;;;;;;4148150;28;20041;-65
2022/11/30 07:02:13;;;;;;;18.27;12.00;;;7.60;99.90;;;;;;4172015;28;20048;-65
2022/11/30 07:04:14;;;;;;;18.45;12.48;;;7.60;99.90;;;;;;4176786;28;20037;-65
2022/11/30 07:06:14;;;;;;;17.73;12.27;;;7.60;99.90;;;;;;4173833;28;20426;-65
2022/11/30 07:08:16;;;;;;;18.45;12.15;;;7.60;99.90;;;;;;4158878;28;20095;-65
2022/11/30 07:10:17;;;;;;;18.30;12.00;;;7.60;99.90;;;;;;4169848;28;20396;-65
2022/11/30 07:12:17;;;;;;;14.85;9.63;;;7.60;99.90;;;;;;4168419;28;20033;-65
2022/11/30 07:14:18;;;;;;;11.90;8.55;;;7.60;99.90;;;;;;4161234;28;20040;-65
2022/11/30 07:16:19;;;;;;;13.77;8.60;;;7.60;99.90;;;;;;4165382;28;20048;-65
2022/11/30 07:18:19;;;;;;;16.33;10.48;;;7.60;99.90;;;;;;4165454;28;20017;-65
2022/11/30 07:20:20;;;;;;;15.00;10.50;;;7.60;99.90;;;;;;4161557;28;20099;-65
2022/11/30 07:22:20;;;;;;;22.27;13.00;;;7.50;99.90;;;;;;4163711;28;20103;-65
2022/11/30 07:26:41;;;;;;;23.63;14.50;;;7.60;99.90;;;;;;4162865;28;20030;-65
2022/11/30 07:28:44;;;;;;;26.00;15.52;;;7.60;99.90;;;;;;4164611;28;20176;-67
2022/11/30 07:30:45;;;;;;;23.20;14.30;;;7.60;99.90;;;;;;4162377;28;20041;-67
2022/11/30 07:32:46;;;;;;;27.27;17.10;;;7.60;99.90;;;;;;4167848;28;20068;-67
2022/11/30 07:34:46;;;;;;;24.83;16.15;;;7.60;99.90;;;;;;4165199;28;20033;-69
2022/11/30 07:36:47;;;;;;;29.25;16.75;;;7.60;99.90;;;;;;4165418;28;20026;-69
2022/11/30 07:38:48;;;;;;;26.50;16.77;;;7.60;99.90;;;;;;4165492;28;20392;-67
2022/11/30 07:40:49;;;;;;;28.10;17.95;;;7.60;99.90;;;;;;4166699;28;20034;-67
2022/11/30 07:42:54;;;;;;;30.27;17.90;;;7.60;99.90;;;;;;4163127;28;20032;-67
2022/11/30 07:44:55;;;;;;;31.25;19.90;;;7.60;99.90;;;;;;4165521;28;20037;-67
2022/11/30 07:46:55;;;;;;;27.25;17.33;;;7.60;99.90;;;;;;4160442;28;20548;-67
2022/11/30 07:48:56;;;;;;;27.45;16.92;;;7.60;99.90;;;;;;4163251;28;20509;-66
2022/11/30 07:51:09;;;;;;;34.05;19.80;;;7.60;99.90;;;;;;4157665;28;20042;-67
2022/11/30 07:53:09;;;;;;;27.42;17.00;;;7.60;99.90;;;;;;4161388;28;20034;-67
2022/11/30 07:55:10;;;;;;;35.78;20.98;;;7.70;99.90;;;;;;4163239;28;20163;-68
2022/11/30 07:57:11;;;;;;;27.55;18.30;;;7.60;99.90;;;;;;4164930;28;20041;-68
2022/11/30 07:59:11;;;;;;;28.58;18.40;;;7.60;99.90;;;;;;4166295;28;20376;-67
2022/11/30 08:01:15;;;;;;;29.33;18.20;;;7.60;99.90;;;;;;4165654;28;20037;-67
2022/11/30 08:03:15;;;;;;;29.08;17.83;;;7.60;99.90;;;;;;4165391;28;20072;-67
2022/11/30 08:05:16;;;;;;;26.67;16.90;;;7.60;99.90;;;;;;4162533;28;20017;-67
2022/11/30 08:07:16;;;;;;;25.85;16.85;;;7.60;99.90;;;;;;4170607;28;20548;-67
2022/11/30 08:09:17;;;;;;;25.83;17.02;;;7.70;99.90;;;;;;4179524;28;20044;-68
2022/11/30 08:11:22;;;;;;;31.23;18.30;;;7.60;99.90;;;;;;4171960;28;20041;-68
2022/11/30 08:13:23;;;;;;;29.45;18.60;;;7.60;99.90;;;;;;4173645;28;20029;-67
2022/11/30 08:15:24;;;;;;;31.92;18.80;;;7.60;99.90;;;;;;4176654;28;20037;-67
2022/11/30 08:17:25;;;;;;;28.75;17.30;;;7.60;99.90;;;;;;4177262;28;20099;-67
2022/11/30 08:19:25;;;;;;;31.58;19.40;;;7.60;99.90;;;;;;4161068;28;20056;-67
2022/11/30 08:21:26;;;;;;;27.75;17.15;;;7.60;99.90;;;;;;4175657;28;20040;-67
2022/11/30 08:23:31;;;;;;;33.38;20.65;;;7.60;99.90;;;;;;4176036;28;20063;-67
2022/11/30 08:25:33;;;;;;;30.63;18.63;;;7.60;99.90;;;;;;4176183;28;20040;-69
2022/11/30 08:27:34;;;;;;;26.27;16.83;;;7.60;99.90;;;;;;4175327;28;20496;-68
2022/11/30 08:29:34;;;;;;;32.42;18.38;;;7.60;99.90;;;;;;4178639;28;20116;-68
2022/11/30 08:31:35;;;;;;;28.20;17.75;;;7.60;99.90;;;;;;4171439;28;20041;-68
2022/11/30 08:33:36;;;;;;;30.80;18.58;;;7.60;99.90;;;;;;4175983;28;20088;-68
2022/11/30 08:35:37;;;;;;;29.52;18.48;;;7.60;99.90;;;;;;4177164;28;20124;-67
2022/11/30 08:37:38;;;;;;;32.17;19.65;;;7.60;99.90;;;;;;4173732;28;20511;-67
2022/11/30 08:39:38;;;;;;;31.27;18.92;;;7.60;99.90;;;;;;4176550;28;20037;-67
2022/11/30 08:41:39;;;;;;;33.33;19.77;;;7.60;99.90;;;;;;4177460;28;20558;-68
2022/11/30 08:43:40;;;;;;;35.10;20.52;;;7.60;99.90;;;;;;4176346;28;20036;-67
2022/11/30 08:45:40;;;;;;;32.08;20.13;;;7.60;99.90;;;;;;4173734;28;20492;-67
2022/11/30 08:47:41;;;;;;;32.00;19.98;;;7.60;99.90;;;;;;4175317;28;20108;-67
2022/11/30 08:49:41;;;;;;;31.27;19.42;;;7.60;99.90;;;;;;4177100;28;20059;-68
2022/11/30 08:51:42;;;;;;;34.28;21.33;;;7.60;99.90;;;;;;4174259;28;20065;-67
2022/11/30 08:53:43;;;;;;;35.78;20.92;;;7.60;99.90;;;;;;4177048;28;20029;-68
2022/11/30 08:55:54;;;;;;;36.05;20.15;;;7.60;99.90;;;;;;4173396;28;20510;-67
2022/11/30 08:57:55;;;;;;;30.33;18.35;;;7.50;99.90;;;;;;4174813;28;20033;-67
2022/11/30 08:59:55;;;;;;;34.72;18.90;;;7.60;99.90;;;;;;4175977;28;20115;-67
2022/11/30 09:01:56;;;;;;;36.10;20.58;;;7.60;99.90;;;;;;4170920;28;20037;-68
2022/11/30 09:03:56;;;;;;;28.90;18.20;;;7.60;99.90;;;;;;4177085;28;20112;-68
2022/11/30 09:06:07;;;;;;;32.60;17.88;;;7.60;99.90;;;;;;4173682;28;20026;-67
2022/11/30 09:08:07;;;;;;;33.58;19.80;;;7.70;99.90;;;;;;4176086;28;20049;-67
2022/11/30 09:10:08;;;;;;;32.75;18.33;;;7.70;99.90;;;;;;4175056;28;20040;-68
2022/11/30 09:12:09;;;;;;;28.38;17.98;;;7.70;99.90;;;;;;4175871;28;20037;-67
2022/11/30 09:14:10;;;;;;;34.88;20.85;;;7.80;99.90;;;;;;4176195;28;20440;-67
2022/11/30 09:16:11;;;;;;;31.77;18.42;;;7.70;99.90;;;;;;4174982;28;20073;-67
2022/11/30 09:18:13;;;;;;;42.97;23.02;;;7.80;99.90;;;;;;4174138;28;20041;-67
2022/11/30 09:20:14;;;;;;;38.65;22.08;;;7.80;99.90;;;;;;4176272;28;20060;-68
2022/11/30 09:22:14;;;;;;;35.20;20.90;;;7.80;99.90;;;;;;4174031;28;20463;-68
2022/11/30 09:24:15;;;;;;;32.10;19.80;;;7.80;99.90;;;;;;4174233;28;20041;-67
2022/11/30 09:26:17;;;;;;;32.65;18.98;;;7.80;99.90;;;;;;4175136;28;20029;-67
2022/11/30 09:28:18;;;;;;;34.08;18.85;;;7.90;99.90;;;;;;4174308;28;20032;-68
2022/11/30 09:30:18;;;;;;;28.50;17.13;;;7.90;99.90;;;;;;4170866;28;20032;-67
2022/11/30 09:32:19;;;;;;;28.05;18.10;;;7.90;99.90;;;;;;4170373;28;20490;-68
2022/11/30 09:34:20;;;;;;;29.42;18.90;;;7.90;99.90;;;;;;4175271;28;20040;-68
2022/11/30 09:36:22;;;;;;;36.17;21.40;;;7.90;99.90;;;;;;4171004;28;20029;-67
2022/11/30 09:38:23;;;;;;;33.10;19.08;;;7.90;99.90;;;;;;4170956;28;21094;-68
2022/11/30 09:40:27;;;;;;;34.60;18.17;;;7.90;99.90;;;;;;4168866;28;20036;-67
2022/11/30 09:42:58;;;;;;;30.80;18.52;;;8.00;99.90;;;;;;4168542;28;20065;-67
2022/11/30 09:45:05;;;;;;;33.70;19.40;;;8.00;99.90;;;;;;4170730;28;20034;-67
2022/11/30 09:47:25;;;;;;;32.70;19.58;;;8.10;99.90;;;;;;4173360;28;20491;-67
2022/11/30 09:49:30;;;;;;;29.98;18.40;;;8.10;99.90;;;;;;4171671;28;20033;-67
2022/11/30 09:51:43;;;;;;;35.72;20.98;;;8.10;99.90;;;;;;4170669;28;20454;-67
2022/11/30 09:53:50;;;;;;;33.92;20.15;;;8.10;99.90;;;;;;4170137;28;20067;-67
2022/11/30 09:55:53;;;;;;;32.08;19.35;;;8.10;99.90;;;;;;4170590;28;20045;-67
2022/11/30 09:57:59;;;;;;;36.38;21.33;;;8.10;99.90;;;;;;4171803;28;20038;-67
2022/11/30 10:00:09;;;;;;;36.03;21.10;;;8.20;99.90;;;;;;4172226;28;20026;-67
2022/11/30 10:02:16;;;;;;;34.85;20.80;;;8.20;99.90;;;;;;4171693;28;20094;-67
2022/11/30 10:04:22;;;;;;;37.08;20.88;;;8.20;99.90;;;;;;4167522;28;20398;-67
2022/11/30 10:06:41;;;;;;;33.40;19.20;;;8.20;99.90;;;;;;4168967;28;20040;-67
2022/11/30 10:09:01;;;;;;;33.60;20.27;;;8.20;99.90;;;;;;4170171;28;21258;-66
2022/11/30 10:11:29;;;;;;;38.45;21.15;;;8.20;99.90;;;;;;4167078;28;20044;-67
2022/11/30 10:14:08;;;;;;;34.53;19.85;;;8.20;99.90;;;;;;4166784;28;20029;-67
2022/11/30 10:16:39;;;;;;;38.35;21.63;;;8.20;99.90;;;;;;4140743;28;20133;-67
2022/11/30 10:19:08;;;;;;;37.92;21.35;;;8.20;99.90;;;;;;4170061;28;20029;-67
2022/11/30 10:21:18;;;;;;;35.47;21.55;;;8.20;99.90;;;;;;4157163;28;20053;-67
2022/11/30 10:23:30;;;;;;;38.97;22.48;;;8.30;99.90;;;;;;4168875;28;20029;-68
2022/11/30 10:25:47;;;;;;;35.00;20.48;;;8.30;99.90;;;;;;4169300;28;20025;-66
2022/11/30 10:27:51;;;;;;;38.75;21.63;;;8.30;99.90;;;;;;4168002;28;20041;-67
2022/11/30 10:29:54;;;;;;;44.55;23.70;;;8.30;99.90;;;;;;4172005;28;20426;-67
2022/11/30 10:31:58;;;;;;;38.00;21.55;;;8.30;99.90;;;;;;4168085;28;20029;-67
2022/11/30 10:34:16;;;;;;;44.40;24.35;;;8.30;99.90;;;;;;4171610;28;20122;-67